Elnora, Indiana
Current Conditions -  °F | °C
As of 7:35 PM on Thursday 27 Nov 2014 (Local Time) from KDCY Reporting Station
Overcast Overcast  
Wind Chill: 20°   Ceiling: 3000
Heat Index: 28°   Visibility: 10mi
Dew Point: 22°   Wind: 8mph
Humidity: 77%   Direction: 290°WNW
Pressure: 30.46"   Gusts: NA
Location:  38.88°N, 87.09°W
Report Text: KDCY 280135Z AUTO 29007KT 10SM BKN030 OVC035 M02/M05 A3046 RMK AO2 T10201055
Loading
Personal Weather Stations






























Interactive Weather Map New forecast layout! Learn more

10-Day Weather Forecast

Advertisements
Track Severe Weather on mobile